Time,TemperatureF,DewpointF,PressureIn,WindDirection,WindDirectionDegrees,WindSpeedMPH,WindSpeedGustMPH,Humidity,HourlyPrecipIn,Conditions,Clouds,dailyrainin,SolarRadiationWatts/m^2,SoftwareType,DateUTC
2013-05-20 00:21:00,46.0,44.0,-100.00,South,185,1.0,4.0,91,0.00,,,0.00,0.000000,,2013-05-20 07:21:00,
2013-05-20 01:21:00,44.0,44.0,-100.00,SSE,160,1.0,2.0,99,0.00,,,0.00,0.000000,,2013-05-20 08:21:00,
2013-05-20 01:31:00,44.0,44.0,-100.00,SSE,160,1.0,2.0,99,0.00,,,0.00,0.000000,,2013-05-20 08:31:00,
2013-05-20 01:41:00,44.0,44.0,-100.00,SSE,160,1.0,2.0,99,0.00,,,0.00,0.000000,,2013-05-20 08:41:00,
2013-05-20 01:51:00,44.0,44.0,-100.00,SSE,160,1.0,2.0,99,0.00,,,0.00,0.000000,,2013-05-20 08:51:00,
2013-05-20 02:21:00,41.0,41.0,-100.00,ESE,103,0.0,4.0,99,0.00,,,0.00,0.000000,,2013-05-20 09:21:00,
2013-05-20 02:43:00,41.0,41.0,-100.00,ESE,103,0.0,4.0,99,0.00,,,0.00,0.000000,,2013-05-20 09:43:00,
2013-05-20 02:52:00,41.0,41.0,-100.00,ESE,103,0.0,4.0,99,0.00,,,0.00,0.000000,,2013-05-20 09:52:00,
2013-05-20 03:22:00,40.0,40.0,-100.00,SE,129,0.0,3.0,99,0.00,,,0.00,0.000000,,2013-05-20 10:22:00,
2013-05-20 03:42:00,40.0,40.0,-100.00,SE,129,0.0,3.0,99,0.00,,,0.00,0.000000,,2013-05-20 10:42:00,
2013-05-20 03:52:00,40.0,40.0,-100.00,SE,129,0.0,3.0,99,0.00,,,0.00,0.000000,,2013-05-20 10:52:00,
2013-05-20 04:21:00,37.0,37.0,-100.00,East,95,0.0,3.0,99,0.00,,,0.00,0.000000,,2013-05-20 11:21:00,
2013-05-20 05:21:00,36.0,36.0,-100.00,SSE,150,0.0,2.0,99,0.00,,,0.00,0.000000,,2013-05-20 12:21:00,
2013-05-20 06:22:00,36.0,36.0,-100.00,ESE,115,0.0,2.0,99,0.00,,,0.00,0.000000,,2013-05-20 13:22:00,
2013-05-20 06:31:00,36.0,36.0,-100.00,ESE,115,0.0,2.0,99,0.00,,,0.00,0.000000,,2013-05-20 13:31:00,
2013-05-20 06:41:00,36.0,36.0,-100.00,ESE,115,0.0,2.0,99,0.00,,,0.00,0.000000,,2013-05-20 13:41:00,
2013-05-20 06:51:00,36.0,36.0,-100.00,ESE,115,0.0,2.0,99,0.00,,,0.00,0.000000,,2013-05-20 13:51:00,
2013-05-20 07:22:00,40.0,40.0,-100.00,East,95,0.0,4.0,99,0.00,,,0.00,17.000000,,2013-05-20 14:22:00,
2013-05-20 07:31:00,40.0,40.0,-100.00,East,95,0.0,4.0,99,0.00,,,0.00,17.000000,,2013-05-20 14:31:00,
2013-05-20 07:41:00,40.0,40.0,-100.00,East,95,0.0,4.0,99,0.00,,,0.00,17.000000,,2013-05-20 14:41:00,
2013-05-20 07:52:00,40.0,40.0,-100.00,East,95,0.0,4.0,99,0.00,,,0.00,17.000000,,2013-05-20 14:52:00,
2013-05-20 08:21:00,50.0,45.0,-100.00,SSW,192,1.0,3.0,83,0.00,,,0.00,179.000000,,2013-05-20 15:21:00,
2013-05-20 08:33:00,50.0,45.0,-100.00,SSW,192,1.0,3.0,83,0.00,,,0.00,179.000000,,2013-05-20 15:33:00,
2013-05-20 08:42:00,50.0,45.0,-100.00,SSW,192,1.0,3.0,83,0.00,,,0.00,179.000000,,2013-05-20 15:42:00,
2013-05-20 08:53:00,50.0,45.0,-100.00,SSW,192,1.0,3.0,83,0.00,,,0.00,179.000000,,2013-05-20 15:53:00,
2013-05-20 09:42:00,59.0,47.0,-100.00,SE,139,2.0,4.0,65,0.00,,,0.00,345.000000,,2013-05-20 16:42:00,
2013-05-20 09:52:00,59.0,47.0,-100.00,SE,139,2.0,4.0,65,0.00,,,0.00,345.000000,,2013-05-20 16:52:00,
2013-05-20 10:45:00,65.0,49.0,-100.00,NNW,342,2.0,6.0,56,0.00,,,0.00,596.000000,,2013-05-20 17:45:00,
2013-05-20 10:53:00,65.0,49.0,-100.00,NNW,342,2.0,6.0,56,0.00,,,0.00,596.000000,,2013-05-20 17:53:00,
2013-05-20 11:23:00,67.0,48.0,-100.00,NNE,13,2.0,7.0,51,0.00,,,0.00,816.000000,,2013-05-20 18:23:00,
2013-05-20 11:32:00,67.0,48.0,-100.00,NNE,13,2.0,7.0,51,0.00,,,0.00,816.000000,,2013-05-20 18:32:00,
2013-05-20 11:41:00,67.0,48.0,-100.00,NNE,13,2.0,7.0,51,0.00,,,0.00,816.000000,,2013-05-20 18:41:00,
2013-05-20 11:55:00,67.0,48.0,-100.00,NNE,13,2.0,7.0,51,0.00,,,0.00,816.000000,,2013-05-20 18:55:00,
2013-05-20 12:21:00,72.0,51.0,-100.00,NNW,340,4.0,10.0,47,0.00,,,0.00,957.000000,,2013-05-20 19:21:00,
2013-05-20 12:32:00,72.0,51.0,-100.00,NNW,340,4.0,10.0,47,0.00,,,0.00,957.000000,,2013-05-20 19:32:00,
2013-05-20 12:41:00,72.0,51.0,-100.00,NNW,340,4.0,10.0,47,0.00,,,0.00,957.000000,,2013-05-20 19:41:00,
2013-05-20 12:52:00,72.0,51.0,-100.00,NNW,340,4.0,10.0,47,0.00,,,0.00,957.000000,,2013-05-20 19:52:00,
2013-05-20 13:21:00,74.0,49.0,-100.00,North,357,6.0,12.0,42,0.00,,,0.00,1044.000000,,2013-05-20 20:21:00,
2013-05-20 13:32:00,74.0,49.0,-100.00,North,357,6.0,12.0,42,0.00,,,0.00,1044.000000,,2013-05-20 20:32:00,
2013-05-20 13:42:00,74.0,49.0,-100.00,North,357,6.0,12.0,42,0.00,,,0.00,1044.000000,,2013-05-20 20:42:00,
2013-05-20 13:51:00,74.0,49.0,-100.00,North,357,6.0,12.0,42,0.00,,,0.00,1044.000000,,2013-05-20 20:51:00,
2013-05-20 14:21:00,78.0,48.0,-100.00,NW,322,9.0,14.0,35,0.00,,,0.00,1078.000000,,2013-05-20 21:21:00,
2013-05-20 14:32:00,78.0,48.0,-100.00,NW,322,9.0,14.0,35,0.00,,,0.00,1078.000000,,2013-05-20 21:32:00,
2013-05-20 14:43:00,78.0,48.0,-100.00,NW,322,9.0,14.0,35,0.00,,,0.00,1078.000000,,2013-05-20 21:43:00,
2013-05-20 14:53:00,78.0,48.0,-100.00,NW,322,9.0,14.0,35,0.00,,,0.00,1078.000000,,2013-05-20 21:53:00,
2013-05-20 15:23:00,81.0,47.0,-100.00,NW,322,6.0,14.0,31,0.00,,,0.00,1065.000000,,2013-05-20 22:23:00,
2013-05-20 15:33:00,81.0,47.0,-100.00,NW,322,6.0,14.0,31,0.00,,,0.00,1065.000000,,2013-05-20 22:33:00,
2013-05-20 15:42:00,81.0,47.0,-100.00,NW,322,6.0,14.0,31,0.00,,,0.00,1065.000000,,2013-05-20 22:42:00,
2013-05-20 15:52:00,81.0,47.0,-100.00,NW,322,6.0,14.0,31,0.00,,,0.00,1065.000000,,2013-05-20 22:52:00,
2013-05-20 16:22:00,82.0,44.0,-100.00,NNW,333,6.0,14.0,26,0.00,,,0.00,994.000000,,2013-05-20 23:22:00,
2013-05-20 16:32:00,82.0,44.0,-100.00,NNW,333,6.0,14.0,26,0.00,,,0.00,994.000000,,2013-05-20 23:32:00,
2013-05-20 16:42:00,82.0,44.0,-100.00,NNW,333,6.0,14.0,26,0.00,,,0.00,994.000000,,2013-05-20 23:42:00,
2013-05-20 16:52:00,82.0,44.0,-100.00,NNW,333,6.0,14.0,26,0.00,,,0.00,994.000000,,2013-05-20 23:52:00,
2013-05-20 17:21:00,85.0,41.0,-100.00,NW,310,5.0,14.0,21,0.00,,,0.00,868.000000,,2013-05-21 00:21:00,
2013-05-20 17:31:00,85.0,41.0,-100.00,NW,310,5.0,14.0,21,0.00,,,0.00,868.000000,,2013-05-21 00:31:00,
2013-05-20 17:41:00,85.0,41.0,-100.00,NW,310,5.0,14.0,21,0.00,,,0.00,868.000000,,2013-05-21 00:41:00,
2013-05-20 17:52:00,85.0,41.0,-100.00,NW,310,5.0,14.0,21,0.00,,,0.00,868.000000,,2013-05-21 00:52:00,
2013-05-20 18:21:00,83.0,42.0,-100.00,NW,314,5.0,12.0,24,0.00,,,0.00,708.000000,,2013-05-21 01:21:00,
2013-05-20 18:32:00,83.0,42.0,-100.00,NW,314,5.0,12.0,24,0.00,,,0.00,708.000000,,2013-05-21 01:32:00,
2013-05-20 18:42:00,83.0,42.0,-100.00,NW,314,5.0,12.0,24,0.00,,,0.00,708.000000,,2013-05-21 01:42:00,
2013-05-20 18:52:00,83.0,42.0,-100.00,NW,314,5.0,12.0,24,0.00,,,0.00,708.000000,,2013-05-21 01:52:00,
2013-05-20 19:21:00,82.0,42.0,-100.00,West,264,6.0,11.0,24,0.00,,,0.00,495.000000,,2013-05-21 02:21:00,
2013-05-20 19:32:00,82.0,42.0,-100.00,West,264,6.0,11.0,24,0.00,,,0.00,495.000000,,2013-05-21 02:32:00,
2013-05-20 19:41:00,82.0,42.0,-100.00,West,264,6.0,11.0,24,0.00,,,0.00,495.000000,,2013-05-21 02:41:00,
2013-05-20 19:52:00,82.0,42.0,-100.00,West,264,6.0,11.0,24,0.00,,,0.00,495.000000,,2013-05-21 02:52:00,
2013-05-20 21:42:00,67.0,34.0,-100.00,WSW,246,1.0,11.0,29,0.00,,,-99.99,31.000000,,2013-05-21 04:42:00,
2013-05-20 21:52:00,67.0,34.0,-100.00,WSW,246,1.0,11.0,29,0.00,,,-99.99,31.000000,,2013-05-21 04:52:00,
2013-05-20 22:21:00,58.0,38.0,-100.00,ESE,111,1.0,6.0,47,0.00,,,0.00,5.000000,,2013-05-21 05:21:00,
2013-05-20 23:12:00,51.0,40.0,-100.00,ENE,58,0.0,5.0,65,-99.99,,,0.00,0.000000,,2013-05-21 06:12:00,
2013-05-20 23:21:00,51.0,40.0,-100.00,ENE,58,0.0,5.0,65,-99.99,,,0.00,0.000000,,2013-05-21 06:21:00,